Time,TemperatureF,DewpointF,PressureIn,WindDirection,WindDirectionDegrees,WindSpeedMPH,WindSpeedGustMPH,Humidity,HourlyPrecipIn,Conditions,Clouds,dailyrainin,SoftwareType,DateUTC
2013-01-07 00:03:00,29.0,24.0,30.32,WNW,285,5.0,10.0,80,-99.99,,,-99.99,,2013-01-07 05:03:00,
2013-01-07 00:12:00,29.0,24.0,30.32,WNW,285,5.0,10.0,80,-99.99,,,-99.99,,2013-01-07 05:12:00,
2013-01-07 00:22:00,29.0,24.0,30.32,West,261,3.0,8.0,80,-99.99,,,-99.99,,2013-01-07 05:22:00,
2013-01-07 00:33:00,29.0,24.0,30.32,WSW,248,3.0,10.0,80,-99.99,,,-99.99,,2013-01-07 05:33:00,
2013-01-07 00:42:00,29.0,24.0,30.32,WSW,248,3.0,10.0,80,-99.99,,,-99.99,,2013-01-07 05:42:00,
2013-01-07 00:53:00,29.0,24.0,30.32,West,274,4.0,7.0,81,-99.99,,,-99.99,,2013-01-07 05:53:00,
2013-01-07 01:02:00,29.0,24.0,30.33,West,271,5.0,10.0,81,-99.99,,,-99.99,,2013-01-07 06:02:00,
2013-01-07 01:12:00,29.0,24.0,30.33,West,271,5.0,10.0,81,-99.99,,,-99.99,,2013-01-07 06:12:00,
2013-01-07 01:22:00,29.0,24.0,30.32,West,274,1.0,7.0,81,-99.99,,,-99.99,,2013-01-07 06:22:00,
2013-01-07 01:32:00,28.0,23.0,30.32,West,260,2.0,6.0,81,-99.99,,,-99.99,,2013-01-07 06:32:00,
2013-01-07 01:42:00,28.0,23.0,30.32,West,260,2.0,6.0,81,-99.99,,,-99.99,,2013-01-07 06:42:00,
2013-01-07 01:52:00,28.0,23.0,30.33,West,260,1.0,6.0,81,-99.99,,,-99.99,,2013-01-07 06:52:00,
2013-01-07 02:02:00,27.0,22.0,30.33,SW,226,2.0,7.0,82,-99.99,,,-99.99,,2013-01-07 07:02:00,
2013-01-07 02:12:00,27.0,22.0,30.33,SW,226,2.0,7.0,82,-99.99,,,-99.99,,2013-01-07 07:12:00,
2013-01-07 02:22:00,27.0,22.0,30.33,SW,226,1.0,5.0,82,-99.99,,,-99.99,,2013-01-07 07:22:00,
2013-01-07 02:33:00,26.0,22.0,30.34,SW,227,2.0,5.0,83,-99.99,,,-99.99,,2013-01-07 07:33:00,
2013-01-07 02:42:00,26.0,22.0,30.34,SW,227,2.0,5.0,83,-99.99,,,-99.99,,2013-01-07 07:42:00,
2013-01-07 02:53:00,26.0,22.0,30.35,SW,226,2.0,5.0,83,-99.99,,,-99.99,,2013-01-07 07:53:00,
2013-01-07 03:03:00,26.0,22.0,30.35,SW,226,2.0,5.0,83,-99.99,,,-99.99,,2013-01-07 08:03:00,
2013-01-07 03:12:00,26.0,22.0,30.35,SW,226,2.0,5.0,83,-99.99,,,-99.99,,2013-01-07 08:12:00,
2013-01-07 03:22:00,25.0,21.0,30.36,SW,229,1.0,3.0,84,-99.99,,,-99.99,,2013-01-07 08:22:00,
2013-01-07 03:33:00,25.0,21.0,30.36,SW,229,2.0,6.0,84,-99.99,,,-99.99,,2013-01-07 08:33:00,
2013-01-07 03:43:00,25.0,21.0,30.36,SW,229,2.0,6.0,84,-99.99,,,-99.99,,2013-01-07 08:43:00,
2013-01-07 03:53:00,24.0,20.0,30.36,SW,229,1.0,6.0,84,-99.99,,,-99.99,,2013-01-07 08:53:00,
2013-01-07 04:02:00,24.0,20.0,30.36,SW,229,2.0,4.0,85,-99.99,,,-99.99,,2013-01-07 09:02:00,
2013-01-07 04:12:00,24.0,20.0,30.36,SW,229,2.0,4.0,85,-99.99,,,-99.99,,2013-01-07 09:12:00,
2013-01-07 04:23:00,23.0,19.0,30.37,SW,230,4.0,6.0,86,-99.99,,,-99.99,,2013-01-07 09:23:00,
2013-01-07 04:32:00,23.0,19.0,30.38,SW,227,1.0,3.0,86,-99.99,,,-99.99,,2013-01-07 09:32:00,
2013-01-07 04:42:00,23.0,19.0,30.38,SW,227,1.0,3.0,86,-99.99,,,-99.99,,2013-01-07 09:42:00,
2013-01-07 04:53:00,22.0,18.0,30.38,SW,227,1.0,4.0,86,-99.99,,,-99.99,,2013-01-07 09:53:00,
2013-01-07 05:02:00,22.0,19.0,30.38,SW,227,1.0,4.0,87,-99.99,,,-99.99,,2013-01-07 10:02:00,
2013-01-07 05:12:00,22.0,19.0,30.38,SW,227,1.0,4.0,87,-99.99,,,-99.99,,2013-01-07 10:12:00,
2013-01-07 05:22:00,21.0,18.0,30.38,SW,227,0.0,1.0,87,-99.99,,,-99.99,,2013-01-07 10:22:00,
2013-01-07 05:32:00,21.0,18.0,30.38,SW,227,0.0,2.0,87,-99.99,,,-99.99,,2013-01-07 10:32:00,
2013-01-07 05:42:00,21.0,18.0,30.38,SW,227,0.0,2.0,87,-99.99,,,-99.99,,2013-01-07 10:42:00,
2013-01-07 05:52:00,21.0,18.0,30.38,SW,227,2.0,3.0,87,-99.99,,,-99.99,,2013-01-07 10:52:00,
2013-01-07 06:02:00,20.0,17.0,30.38,SW,227,1.0,3.0,87,-99.99,,,-99.99,,2013-01-07 11:02:00,
2013-01-07 06:12:00,20.0,17.0,30.38,SW,227,1.0,3.0,87,-99.99,,,-99.99,,2013-01-07 11:12:00,
2013-01-07 06:23:00,20.0,17.0,30.38,SW,217,1.0,4.0,88,-99.99,,,-99.99,,2013-01-07 11:23:00,
2013-01-07 06:33:00,20.0,17.0,30.38,SW,217,2.0,4.0,88,-99.99,,,-99.99,,2013-01-07 11:33:00,
2013-01-07 06:43:00,20.0,17.0,30.38,SW,217,2.0,4.0,88,-99.99,,,-99.99,,2013-01-07 11:43:00,
2013-01-07 06:53:00,20.0,17.0,30.39,SW,217,2.0,3.0,88,-99.99,,,-99.99,,2013-01-07 11:53:00,
2013-01-07 07:03:00,19.0,16.0,30.40,SW,217,2.0,3.0,89,-99.99,,,-99.99,,2013-01-07 12:03:00,
2013-01-07 07:12:00,19.0,16.0,30.40,SW,217,2.0,3.0,89,-99.99,,,-99.99,,2013-01-07 12:12:00,
2013-01-07 07:23:00,19.0,16.0,30.41,SW,217,2.0,4.0,89,-99.99,,,-99.99,,2013-01-07 12:23:00,
2013-01-07 07:33:00,18.0,15.0,30.41,SW,217,1.0,5.0,89,-99.99,,,-99.99,,2013-01-07 12:33:00,
2013-01-07 07:43:00,18.0,15.0,30.41,SW,217,1.0,5.0,89,-99.99,,,-99.99,,2013-01-07 12:43:00,
2013-01-07 07:52:00,18.0,15.0,30.41,SW,217,1.0,5.0,89,-99.99,,,-99.99,,2013-01-07 12:52:00,
2013-01-07 08:03:00,18.0,15.0,30.41,SW,217,1.0,5.0,89,-99.99,,,-99.99,,2013-01-07 13:03:00,
2013-01-07 08:12:00,18.0,15.0,30.41,SW,217,1.0,5.0,89,-99.99,,,-99.99,,2013-01-07 13:12:00,
2013-01-07 08:23:00,18.0,15.0,30.41,SW,217,2.0,5.0,89,-99.99,,,-99.99,,2013-01-07 13:23:00,
2013-01-07 08:33:00,18.0,15.0,30.41,SW,217,2.0,5.0,89,-99.99,,,-99.99,,2013-01-07 13:33:00,
2013-01-07 08:43:00,18.0,15.0,30.41,SW,217,2.0,5.0,89,-99.99,,,-99.99,,2013-01-07 13:43:00,
2013-01-07 08:53:00,18.0,15.0,30.41,South,180,4.0,5.0,89,-99.99,,,-99.99,,2013-01-07 13:53:00,
2013-01-07 09:03:00,18.0,15.0,30.41,South,180,3.0,6.0,89,-99.99,,,-99.99,,2013-01-07 14:03:00,
2013-01-07 09:13:00,18.0,15.0,30.41,South,180,3.0,6.0,89,-99.99,,,-99.99,,2013-01-07 14:13:00,
2013-01-07 09:23:00,19.0,17.0,30.41,South,182,3.0,6.0,90,-99.99,,,-99.99,,2013-01-07 14:23:00,
2013-01-07 09:33:00,20.0,18.0,30.41,South,188,5.0,9.0,90,-99.99,,,-99.99,,2013-01-07 14:33:00,
2013-01-07 09:43:00,20.0,18.0,30.41,South,188,5.0,9.0,90,-99.99,,,-99.99,,2013-01-07 14:43:00,
2013-01-07 09:53:00,20.0,18.0,30.41,SSW,197,5.0,9.0,90,-99.99,,,-99.99,,2013-01-07 14:53:00,
2013-01-07 10:03:00,21.0,19.0,30.40,SE,142,3.0,10.0,90,-99.99,,,-99.99,,2013-01-07 15:03:00,
2013-01-07 10:12:00,21.0,19.0,30.40,SE,142,3.0,10.0,90,-99.99,,,-99.99,,2013-01-07 15:12:00,
2013-01-07 10:23:00,21.0,19.0,30.40,South,180,2.0,6.0,90,-99.99,,,-99.99,,2013-01-07 15:23:00,
2013-01-07 10:33:00,23.0,20.0,30.40,South,184,6.0,12.0,89,-99.99,,,-99.99,,2013-01-07 15:33:00,
2013-01-07 10:43:00,23.0,20.0,30.40,South,184,6.0,12.0,89,-99.99,,,-99.99,,2013-01-07 15:43:00,
2013-01-07 10:53:00,24.0,21.0,30.40,SSW,203,6.0,12.0,87,-99.99,,,-99.99,,2013-01-07 15:53:00,
2013-01-07 11:03:00,25.0,21.0,30.40,SSW,195,7.0,13.0,84,-99.99,,,-99.99,,2013-01-07 16:03:00,
2013-01-07 11:12:00,25.0,21.0,30.40,SSW,195,7.0,13.0,84,-99.99,,,-99.99,,2013-01-07 16:12:00,
2013-01-07 11:23:00,25.0,20.0,30.40,SSW,198,8.0,13.0,81,-99.99,,,-99.99,,2013-01-07 16:23:00,
2013-01-07 11:33:00,26.0,20.0,30.40,SW,215,6.0,15.0,79,-99.99,,,-99.99,,2013-01-07 16:33:00,
2013-01-07 11:43:00,26.0,20.0,30.40,SW,215,6.0,15.0,79,-99.99,,,-99.99,,2013-01-07 16:43:00,
2013-01-07 11:53:00,26.0,20.0,30.39,South,187,8.0,16.0,77,-99.99,,,-99.99,,2013-01-07 16:53:00,
2013-01-07 12:03:00,27.0,20.0,30.38,SSW,209,9.0,15.0,76,-99.99,,,-99.99,,2013-01-07 17:03:00,
2013-01-07 12:12:00,27.0,20.0,30.38,SSW,209,9.0,15.0,76,-99.99,,,-99.99,,2013-01-07 17:12:00,
2013-01-07 12:23:00,27.0,20.0,30.37,SSW,206,8.0,15.0,76,-99.99,,,-99.99,,2013-01-07 17:23:00,
2013-01-07 12:33:00,29.0,21.0,30.35,SSW,194,8.0,14.0,73,-99.99,,,-99.99,,2013-01-07 17:33:00,
2013-01-07 12:42:00,29.0,21.0,30.35,SSW,194,8.0,14.0,73,-99.99,,,-99.99,,2013-01-07 17:42:00,
2013-01-07 12:53:00,30.0,21.0,30.34,SSW,192,9.0,17.0,70,-99.99,,,-99.99,,2013-01-07 17:53:00,
2013-01-07 13:03:00,31.0,22.0,30.33,SSE,155,10.0,16.0,69,-99.99,,,-99.99,,2013-01-07 18:03:00,
2013-01-07 13:13:00,31.0,22.0,30.33,SSE,155,10.0,16.0,69,-99.99,,,-99.99,,2013-01-07 18:13:00,
2013-01-07 13:23:00,32.0,23.0,30.32,SSW,213,13.0,18.0,68,-99.99,,,-99.99,,2013-01-07 18:23:00,
2013-01-07 13:33:00,33.0,23.0,30.31,SSW,192,9.0,17.0,67,-99.99,,,-99.99,,2013-01-07 18:33:00,
2013-01-07 13:43:00,33.0,23.0,30.31,SSW,192,9.0,17.0,67,-99.99,,,-99.99,,2013-01-07 18:43:00,
2013-01-07 13:53:00,33.0,23.0,30.30,SSW,198,8.0,17.0,67,-99.99,,,-99.99,,2013-01-07 18:53:00,
2013-01-07 14:03:00,34.0,23.0,30.29,South,182,10.0,15.0,65,-99.99,,,-99.99,,2013-01-07 19:03:00,
2013-01-07 14:12:00,34.0,23.0,30.29,South,182,10.0,15.0,65,-99.99,,,-99.99,,2013-01-07 19:12:00,
2013-01-07 14:23:00,34.0,23.0,30.29,South,184,6.0,18.0,65,-99.99,,,-99.99,,2013-01-07 19:23:00,
2013-01-07 14:33:00,34.0,23.0,30.28,South,187,12.0,23.0,65,-99.99,,,-99.99,,2013-01-07 19:33:00,
2013-01-07 14:43:00,34.0,23.0,30.28,South,187,12.0,23.0,65,-99.99,,,-99.99,,2013-01-07 19:43:00,
2013-01-07 14:53:00,34.0,23.0,30.27,South,169,11.0,19.0,65,-99.99,,,-99.99,,2013-01-07 19:53:00,
2013-01-07 15:03:00,34.0,24.0,30.27,SE,143,6.0,18.0,67,-99.99,,,-99.99,,2013-01-07 20:03:00,
2013-01-07 15:12:00,34.0,24.0,30.27,SE,143,6.0,18.0,67,-99.99,,,-99.99,,2013-01-07 20:12:00,
2013-01-07 15:23:00,34.0,24.0,30.26,SSW,199,9.0,17.0,67,-99.99,,,-99.99,,2013-01-07 20:23:00,
2013-01-07 15:33:00,34.0,25.0,30.26,SW,227,8.0,20.0,68,-99.99,,,-99.99,,2013-01-07 20:33:00,
2013-01-07 15:42:00,34.0,25.0,30.26,SW,227,8.0,20.0,68,-99.99,,,-99.99,,2013-01-07 20:42:00,
2013-01-07 15:53:00,34.0,24.0,30.26,SSW,194,8.0,18.0,67,-99.99,,,-99.99,,2013-01-07 20:53:00,
2013-01-07 16:03:00,34.0,25.0,30.26,SSE,165,5.0,14.0,68,-99.99,,,-99.99,,2013-01-07 21:03:00,
2013-01-07 16:12:00,34.0,25.0,30.26,SSE,165,5.0,14.0,68,-99.99,,,-99.99,,2013-01-07 21:12:00,
2013-01-07 16:23:00,34.0,24.0,30.26,SSW,213,10.0,15.0,67,-99.99,,,-99.99,,2013-01-07 21:23:00,
2013-01-07 16:33:00,34.0,25.0,30.26,SSW,194,6.0,13.0,69,-99.99,,,-99.99,,2013-01-07 21:33:00,
2013-01-07 16:43:00,34.0,25.0,30.26,SSW,194,6.0,13.0,69,-99.99,,,-99.99,,2013-01-07 21:43:00,
2013-01-07 16:53:00,34.0,25.0,30.26,SSW,202,7.0,12.0,69,-99.99,,,-99.99,,2013-01-07 21:53:00,
2013-01-07 17:03:00,34.0,25.0,30.26,South,186,6.0,13.0,69,-99.99,,,-99.99,,2013-01-07 22:03:00,
2013-01-07 17:12:00,34.0,25.0,30.26,South,186,6.0,13.0,69,-99.99,,,-99.99,,2013-01-07 22:12:00,
2013-01-07 17:23:00,33.0,24.0,30.26,SSW,208,6.0,11.0,70,-99.99,,,-99.99,,2013-01-07 22:23:00,
2013-01-07 17:33:00,32.0,24.0,30.25,South,182,6.0,12.0,72,-99.99,,,-99.99,,2013-01-07 22:33:00,
2013-01-07 17:43:00,32.0,24.0,30.25,South,182,6.0,12.0,72,-99.99,,,-99.99,,2013-01-07 22:43:00,
2013-01-07 17:53:00,31.0,23.0,30.25,SE,138,7.0,11.0,73,-99.99,,,-99.99,,2013-01-07 22:53:00,
2013-01-07 18:02:00,30.0,23.0,30.25,SSW,193,7.0,13.0,75,-99.99,,,-99.99,,2013-01-07 23:02:00,
2013-01-07 18:12:00,30.0,23.0,30.25,SSW,193,7.0,13.0,75,-99.99,,,-99.99,,2013-01-07 23:12:00,
2013-01-07 18:23:00,30.0,23.0,30.25,SSW,193,7.0,13.0,75,-99.99,,,-99.99,,2013-01-07 23:23:00,
2013-01-07 18:33:00,30.0,23.0,30.25,SSW,193,7.0,13.0,75,-99.99,,,-99.99,,2013-01-07 23:33:00,
2013-01-07 18:43:00,30.0,23.0,30.25,SSW,193,7.0,13.0,75,-99.99,,,-99.99,,2013-01-07 23:43:00,
2013-01-07 18:53:00,30.0,23.0,30.24,South,184,6.0,12.0,75,-99.99,,,-99.99,,2013-01-07 23:53:00,
2013-01-07 19:03:00,29.0,22.0,30.23,South,177,4.0,12.0,76,-99.99,,,-99.99,,2013-01-08 00:03:00,
2013-01-07 19:12:00,29.0,22.0,30.23,South,177,4.0,12.0,76,-99.99,,,-99.99,,2013-01-08 00:12:00,
2013-01-07 19:23:00,29.0,22.0,30.23,South,178,4.0,9.0,76,-99.99,,,-99.99,,2013-01-08 00:23:00,
2013-01-07 19:33:00,29.0,22.0,30.23,South,174,3.0,9.0,76,-99.99,,,-99.99,,2013-01-08 00:33:00,
2013-01-07 19:42:00,29.0,22.0,30.23,South,174,3.0,9.0,76,-99.99,,,-99.99,,2013-01-08 00:42:00,
2013-01-07 19:52:00,28.0,22.0,30.23,South,169,1.0,4.0,77,-99.99,,,-99.99,,2013-01-08 00:52:00,
2013-01-07 20:03:00,28.0,22.0,30.22,South,169,2.0,5.0,78,-99.99,,,-99.99,,2013-01-08 01:03:00,
2013-01-07 20:12:00,28.0,22.0,30.22,South,169,2.0,5.0,78,-99.99,,,-99.99,,2013-01-08 01:12:00,
2013-01-07 20:22:00,27.0,21.0,30.22,South,169,1.0,5.0,78,-99.99,,,-99.99,,2013-01-08 01:22:00,
2013-01-07 20:33:00,27.0,21.0,30.22,South,172,3.0,5.0,79,-99.99,,,-99.99,,2013-01-08 01:33:00,
2013-01-07 20:42:00,27.0,21.0,30.22,South,172,3.0,5.0,79,-99.99,,,-99.99,,2013-01-08 01:42:00,
2013-01-07 20:52:00,27.0,21.0,30.22,SSW,201,4.0,8.0,79,-99.99,,,-99.99,,2013-01-08 01:52:00,
2013-01-07 21:02:00,27.0,21.0,30.22,SSW,205,5.0,7.0,79,-99.99,,,-99.99,,2013-01-08 02:02:00,
2013-01-07 21:12:00,27.0,21.0,30.22,SSW,205,5.0,7.0,79,-99.99,,,-99.99,,2013-01-08 02:12:00,
2013-01-07 21:22:00,27.0,21.0,30.21,SSW,202,5.0,10.0,79,-99.99,,,-99.99,,2013-01-08 02:22:00,
2013-01-07 21:33:00,27.0,21.0,30.22,SE,146,5.0,8.0,79,-99.99,,,-99.99,,2013-01-08 02:33:00,
2013-01-07 21:42:00,27.0,21.0,30.22,SE,146,5.0,8.0,79,-99.99,,,-99.99,,2013-01-08 02:42:00,
2013-01-07 21:53:00,26.0,20.0,30.20,South,183,5.0,10.0,79,-99.99,,,-99.99,,2013-01-08 02:53:00,
2013-01-07 22:03:00,26.0,21.0,30.20,SSW,212,4.0,9.0,80,-99.99,,,-99.99,,2013-01-08 03:03:00,
2013-01-07 22:12:00,26.0,21.0,30.20,SSW,212,4.0,9.0,80,-99.99,,,-99.99,,2013-01-08 03:12:00,
2013-01-07 22:22:00,26.0,21.0,30.21,SSW,195,4.0,11.0,80,-99.99,,,-99.99,,2013-01-08 03:22:00,
2013-01-07 22:32:00,26.0,21.0,30.20,SSW,204,7.0,11.0,80,-99.99,,,-99.99,,2013-01-08 03:32:00,
2013-01-07 22:43:00,26.0,21.0,30.20,SSW,204,7.0,11.0,80,-99.99,,,-99.99,,2013-01-08 03:43:00,
2013-01-07 22:53:00,26.0,21.0,30.19,South,179,5.0,9.0,80,-99.99,,,-99.99,,2013-01-08 03:53:00,
2013-01-07 23:02:00,26.0,21.0,30.19,SSW,193,5.0,10.0,80,-99.99,,,-99.99,,2013-01-08 04:02:00,
2013-01-07 23:12:00,26.0,21.0,30.19,SSW,193,5.0,10.0,80,-99.99,,,-99.99,,2013-01-08 04:12:00,
2013-01-07 23:22:00,26.0,21.0,30.19,SSE,165,6.0,12.0,80,-99.99,,,-99.99,,2013-01-08 04:22:00,
2013-01-07 23:32:00,26.0,21.0,30.19,South,179,8.0,13.0,80,-99.99,,,-99.99,,2013-01-08 04:32:00,
2013-01-07 23:42:00,26.0,21.0,30.19,South,179,8.0,13.0,80,-99.99,,,-99.99,,2013-01-08 04:42:00,
2013-01-07 23:52:00,27.0,22.0,30.17,SSW,209,5.0,13.0,80,-99.99,,,-99.99,,2013-01-08 04:52:00,